Time;durP1;ratioP1;P1;durP2;ratioP2;P2;SDS_P1;SDS_P2;PMS_P1;PMS_P2;Temp;Humidity;BMP_temperature;BMP_pressure;BME280_temperature;BME280_humidity;BME280_pressure;Samples;Min_cycle;Max_cycle;Signal;HPM_P1;HPM_P2
2021/08/31 00:00:17;;;;;;;;;;;;;;;12.92;71.91;101751.28;4981501;28;19986;-74
2021/08/31 00:02:46;;;;;;;;;;;;;;;12.92;72.01;101749.44;5008899;28;19980;-74
2021/08/31 00:05:14;;;;;;;;;;;;;;;12.93;72.09;101759.28;4993488;28;19974;-73
2021/08/31 00:07:42;;;;;;;;;;;;;;;12.92;71.52;101751.28;4993985;28;19974;-74
2021/08/31 00:10:11;;;;;;;;;;;;;;;12.88;72.07;101752.44;4985820;28;19969;-74
2021/08/31 00:12:39;;;;;;;;;;;;;;;12.85;71.78;101756.16;4989237;28;19978;-73
2021/08/31 00:15:09;;;;;;;;;;;;;;;12.82;72.65;101752.78;5008747;28;19974;-74
2021/08/31 00:17:37;;;;;;;;;;;;;;;12.79;72.08;101755.66;4994918;28;19974;-73
2021/08/31 00:20:07;;;;;;;;;;;;;;;12.75;72.32;101753.16;4993574;28;19990;-74
2021/08/31 00:22:36;;;;;;;;;;;;;;;12.73;71.68;101752.38;4994112;28;20309;-74
2021/08/31 00:25:04;;;;;;;;;;;;;;;12.73;71.74;101751.50;4993107;28;19982;-74
2021/08/31 00:27:32;;;;;;;;;;;;;;;12.71;72.01;101748.03;4992898;28;19998;-74
2021/08/31 00:30:00;;;;;;;;;;;;;;;12.69;72.29;101755.38;4992096;28;19970;-74
2021/08/31 00:32:29;;;;;;;;;;;;;;;12.69;72.44;101755.38;5004844;28;19997;-73
2021/08/31 00:34:57;;;;;;;;;;;;;;;12.66;72.14;101756.41;4984543;28;19982;-73
2021/08/31 00:37:24;;;;;;;;;;;;;;;12.67;72.46;101766.22;4988880;28;19974;-73
2021/08/31 00:39:52;;;;;;;;;;;;;;;12.68;72.51;101764.41;4993211;28;19997;-73
2021/08/31 00:42:20;;;;;;;;;;;;;;;12.65;72.21;101759.19;4983058;28;19978;-73
2021/08/31 00:44:48;;;;;;;;;;;;;;;12.62;72.96;101765.66;4990810;28;20048;-73
2021/08/31 00:47:16;;;;;;;;;;;;;;;12.62;72.63;101764.78;4999095;28;20436;-73
2021/08/31 00:49:47;;;;;;;;;;;;;;;12.59;73.32;101771.22;4993592;28;20032;-73
2021/08/31 00:52:15;;;;;;;;;;;;;;;12.59;72.86;101759.56;4977588;28;20428;-74
2021/08/31 00:54:43;;;;;;;;;;;;;;;12.58;72.56;101769.50;4992960;28;20029;-74
2021/08/31 00:57:14;;;;;;;;;;;;;;;12.57;72.43;101773.16;4992798;28;19974;-74
2021/08/31 00:59:41;;;;;;;;;;;;;;;12.53;72.56;101766.19;5005060;28;19982;-73
2021/08/31 01:02:09;;;;;;;;;;;;;;;12.52;72.70;101769.84;4991069;28;20381;-74
2021/08/31 01:04:37;;;;;;;;;;;;;;;12.46;73.05;101772.91;4992286;28;20001;-74
2021/08/31 01:07:07;;;;;;;;;;;;;;;12.42;73.35;101766.81;4990961;28;20001;-74
2021/08/31 01:09:36;;;;;;;;;;;;;;;12.37;74.03;101770.75;4992773;28;19974;-73
2021/08/31 01:12:04;;;;;;;;;;;;;;;12.33;74.68;101769.19;4991742;28;19974;-73
2021/08/31 01:14:31;;;;;;;;;;;;;;;12.30;74.38;101769.38;4985024;28;20005;-73
2021/08/31 01:16:59;;;;;;;;;;;;;;;12.25;75.08;101774.16;4987681;28;19978;-73
2021/08/31 01:19:30;;;;;;;;;;;;;;;12.23;75.20;101773.38;4979106;28;19986;-73
2021/08/31 01:21:59;;;;;;;;;;;;;;;12.13;77.28;101779.28;4992685;28;19979;-73
2021/08/31 01:24:28;;;;;;;;;;;;;;;12.13;76.63;101787.38;4985382;28;19976;-73
2021/08/31 01:26:58;;;;;;;;;;;;;;;12.17;75.81;101781.81;4992989;28;20027;-73
2021/08/31 01:29:26;;;;;;;;;;;;;;;12.13;75.66;101776.59;4987010;28;20001;-73
2021/08/31 01:31:54;;;;;;;;;;;;;;;12.08;76.75;101785.91;5003502;28;19982;-73
2021/08/31 01:34:22;;;;;;;;;;;;;;;12.09;76.43;101788.50;4986221;28;20079;-74
2021/08/31 01:36:50;;;;;;;;;;;;;;;12.08;76.73;101794.84;4983112;28;19986;-73
2021/08/31 01:39:18;;;;;;;;;;;;;;;12.04;76.73;101784.34;4978552;28;20371;-73
2021/08/31 01:41:46;;;;;;;;;;;;;;;12.01;76.61;101785.38;4992770;28;19974;-73
2021/08/31 01:44:15;;;;;;;;;;;;;;;12.03;77.05;101783.47;4978573;28;19970;-73
2021/08/31 01:46:43;;;;;;;;;;;;;;;12.00;77.22;101786.34;5002711;28;20440;-73
2021/08/31 01:49:11;;;;;;;;;;;;;;;11.94;78.68;101784.00;5006107;28;19977;-74
2021/08/31 01:51:38;;;;;;;;;;;;;;;11.90;78.29;101781.56;4991517;28;20017;-74
2021/08/31 01:54:06;;;;;;;;;;;;;;;11.89;79.41;101794.16;4991943;28;19974;-74
2021/08/31 01:56:34;;;;;;;;;;;;;;;11.95;79.60;101795.66;4980189;28;19978;-74
2021/08/31 01:59:02;;;;;;;;;;;;;;;11.94;80.00;101791.19;4995532;28;19981;-74
2021/08/31 02:01:31;;;;;;;;;;;;;;;11.96;79.16;101792.88;4989016;28;19993;-74
2021/08/31 02:03:59;;;;;;;;;;;;;;;11.97;80.37;101789.22;5006699;28;19994;-74
2021/08/31 02:06:27;;;;;;;;;;;;;;;12.01;79.28;101780.00;4990352;28;19977;-74
2021/08/31 02:08:55;;;;;;;;;;;;;;;12.03;78.72;101791.56;4981308;28;20410;-74
2021/08/31 02:11:23;;;;;;;;;;;;;;;11.95;79.66;101791.13;4985655;28;20029;-74
2021/08/31 02:13:51;;;;;;;;;;;;;;;11.90;79.06;101795.88;4978801;28;19974;-74
2021/08/31 02:16:18;;;;;;;;;;;;;;;11.90;79.14;101792.31;4991991;28;19974;-74
2021/08/31 02:18:50;;;;;;;;;;;;;;;11.89;79.10;101785.19;4983568;28;19981;-74
2021/08/31 02:21:17;;;;;;;;;;;;;;;11.85;80.16;101778.25;4983334;28;20032;-74
2021/08/31 02:23:45;;;;;;;;;;;;;;;11.82;79.40;101787.38;4981000;28;19970;-74
2021/08/31 02:26:13;;;;;;;;;;;;;;;11.81;79.80;101778.44;4981482;28;19986;-74
2021/08/31 02:28:41;;;;;;;;;;;;;;;11.80;79.32;101773.13;4985289;28;19974;-75
2021/08/31 02:31:09;;;;;;;;;;;;;;;11.80;79.60;101783.91;4995068;28;19974;-75
2021/08/31 02:33:37;;;;;;;;;;;;;;;11.81;79.13;101781.13;4980870;28;19977;-74
2021/08/31 02:36:06;;;;;;;;;;;;;;;11.81;79.02;101782.94;4981221;28;20006;-74
2021/08/31 02:38:34;;;;;;;;;;;;;;;11.73;79.05;101785.19;4988925;28;20457;-74
2021/08/31 02:41:02;;;;;;;;;;;;;;;11.68;79.61;101789.94;4981449;28;20024;-74
2021/08/31 02:43:30;;;;;;;;;;;;;;;11.65;79.52;101779.34;4987818;28;20028;-74
2021/08/31 02:45:57;;;;;;;;;;;;;;;11.67;79.61;101774.75;4991051;28;19974;-74
2021/08/31 02:48:25;;;;;;;;;;;;;;;11.68;79.03;101776.50;4990575;28;20020;-74
2021/08/31 02:50:53;;;;;;;;;;;;;;;11.71;78.44;101779.88;5000029;28;19979;-74
2021/08/31 02:53:22;;;;;;;;;;;;;;;11.74;78.08;101782.41;4985220;28;19978;-74
2021/08/31 02:55:50;;;;;;;;;;;;;;;11.72;78.34;101791.50;4990438;28;19970;-74
2021/08/31 02:58:18;;;;;;;;;;;;;;;11.67;78.73;101790.91;4984106;28;19974;-74
2021/08/31 03:00:53;;;;;;;;;;;;;;;11.61;78.64;101785.84;4983590;28;20045;-74
2021/08/31 03:03:21;;;;;;;;;;;;;;;11.56;79.18;101790.59;4990562;28;19998;-76
2021/08/31 03:05:49;;;;;;;;;;;;;;;11.50;79.59;101786.44;4989675;28;19975;-77
2021/08/31 03:08:17;;;;;;;;;;;;;;;11.52;79.76;101788.09;4979761;28;19988;-71
2021/08/31 03:10:46;;;;;;;;;;;;;;;11.49;79.82;101788.25;4991516;28;20006;-72
2021/08/31 03:13:14;;;;;;;;;;;;;;;11.40;79.85;101787.91;4991053;28;20422;-67
2021/08/31 03:15:42;;;;;;;;;;;;;;;11.45;79.70;101785.81;4991459;28;19982;-68
2021/08/31 03:18:10;;;;;;;;;;;;;;;11.45;80.06;101784.00;4988593;28;19980;-68
2021/08/31 03:20:38;;;;;;;;;;;;;;;11.40;80.33;101787.91;4992085;28;20032;-67
2021/08/31 03:23:06;;;;;;;;;;;;;;;11.44;80.18;101786.78;4988462;28;19971;-67
2021/08/31 03:25:33;;;;;;;;;;;;;;;11.44;80.16;101794.84;4996433;28;19974;-67
2021/08/31 03:28:03;;;;;;;;;;;;;;;11.40;80.37;101786.09;4980937;28;19974;-67
2021/08/31 03:30:33;;;;;;;;;;;;;;;11.36;80.35;101786.34;5004313;28;20028;-66
2021/08/31 03:33:02;;;;;;;;;;;;;;;11.31;81.11;101773.13;4994350;28;20435;-66
2021/08/31 03:35:30;;;;;;;;;;;;;;;11.34;80.65;101783.72;4992597;28;20005;-67
2021/08/31 03:37:58;;;;;;;;;;;;;;;11.37;81.08;101783.56;4993454;28;20020;-67
2021/08/31 03:40:26;;;;;;;;;;;;;;;11.31;81.18;101786.56;4993339;28;20406;-67
2021/08/31 03:42:53;;;;;;;;;;;;;;;11.27;81.62;101787.69;4993805;28;20033;-67
2021/08/31 03:45:23;;;;;;;;;;;;;;;11.25;82.00;101788.72;4992537;28;20413;-67
2021/08/31 03:47:51;;;;;;;;;;;;;;;11.31;81.22;101789.25;4993603;28;19981;-66
2021/08/31 03:50:19;;;;;;;;;;;;;;;11.32;81.55;101784.75;4988470;28;19971;-66
2021/08/31 03:52:47;;;;;;;;;;;;;;;11.37;81.13;101788.94;4985670;28;20631;-66
2021/08/31 03:55:15;;;;;;;;;;;;;;;11.39;80.88;101789.72;5007588;28;19974;-67
2021/08/31 03:57:43;;;;;;;;;;;;;;;11.37;81.25;101785.38;4978685;28;20027;-67
2021/08/31 04:00:11;;;;;;;;;;;;;;;11.32;81.34;101774.84;5003452;28;20349;-67
2021/08/31 04:02:40;;;;;;;;;;;;;;;11.34;81.49;101786.44;5006496;28;20017;-67
2021/08/31 04:05:09;;;;;;;;;;;;;;;11.31;81.81;101783.00;4993306;28;20045;-67
2021/08/31 04:07:37;;;;;;;;;;;;;;;11.35;81.01;101777.41;4992852;28;19982;-67
2021/08/31 04:10:05;;;;;;;;;;;;;;;11.20;81.53;101757.56;4993666;28;19989;-66
2021/08/31 04:12:33;;;;;;;;;;;;;;;11.33;81.50;101779.31;4993591;28;19970;-66
2021/08/31 04:15:01;;;;;;;;;;;;;;;11.34;81.14;101780.19;5005474;28;19998;-67
2021/08/31 04:17:29;;;;;;;;;;;;;;;11.39;81.82;101783.47;4994353;28;19970;-66
2021/08/31 04:19:58;;;;;;;;;;;;;;;11.43;81.79;101777.84;4984169;28;20438;-67
2021/08/31 04:22:26;;;;;;;;;;;;;;;11.45;81.35;101770.56;4990459;28;21698;-66
2021/08/31 04:24:54;;;;;;;;;;;;;;;11.48;81.42;101769.53;4992124;28;20421;-67
2021/08/31 04:27:21;;;;;;;;;;;;;;;11.57;81.50;101770.81;4988530;28;19977;-67
2021/08/31 04:29:49;;;;;;;;;;;;;;;11.65;81.36;101768.59;4980870;28;20068;-69
2021/08/31 04:32:18;;;;;;;;;;;;;;;11.72;81.09;101770.00;4985639;28;19982;-67
2021/08/31 04:34:46;;;;;;;;;;;;;;;11.83;80.97;101772.97;4982903;28;20028;-67
2021/08/31 04:37:16;;;;;;;;;;;;;;;11.88;80.56;101778.94;4988034;28;20345;-68
2021/08/31 04:39:44;;;;;;;;;;;;;;;11.94;80.94;101784.00;4983672;28;19971;-68
2021/08/31 04:42:11;;;;;;;;;;;;;;;12.02;81.04;101779.06;4987050;28;19986;-68
2021/08/31 04:44:39;;;;;;;;;;;;;;;12.10;80.52;101790.25;4984310;28;19979;-68
2021/08/31 04:47:07;;;;;;;;;;;;;;;12.18;80.87;101783.53;4987191;28;19974;-67
2021/08/31 04:49:35;;;;;;;;;;;;;;;12.25;80.40;101785.81;4984750;28;20084;-68
2021/08/31 04:52:03;;;;;;;;;;;;;;;12.35;80.82;101776.22;4986139;28;20333;-67
2021/08/31 04:54:32;;;;;;;;;;;;;;;12.44;79.69;101777.50;4986830;28;19977;-67
2021/08/31 04:57:00;;;;;;;;;;;;;;;12.52;79.65;101780.59;4993980;28;19971;-67
2021/08/31 04:59:28;;;;;;;;;;;;;;;12.65;79.15;101780.75;4987601;28;19982;-67
2021/08/31 05:01:56;;;;;;;;;;;;;;;12.70;79.56;101781.34;4984687;28;19998;-67
2021/08/31 05:04:28;;;;;;;;;;;;;;;12.84;79.05;101775.97;4984461;28;19990;-67
2021/08/31 05:06:56;;;;;;;;;;;;;;;12.96;78.42;101779.78;4985710;28;20001;-67
2021/08/31 05:09:24;;;;;;;;;;;;;;;13.01;78.06;101770.44;4987101;28;20376;-67
2021/08/31 05:11:53;;;;;;;;;;;;;;;13.09;78.04;101769.97;4987618;28;20029;-67
2021/08/31 05:14:21;;;;;;;;;;;;;;;13.24;77.50;101760.09;4987577;28;20005;-67
2021/08/31 05:16:48;;;;;;;;;;;;;;;13.31;76.61;101770.41;4985408;28;19974;-68
2021/08/31 05:19:16;;;;;;;;;;;;;;;13.47;76.75;101772.13;4997624;28;19978;-68
2021/08/31 05:21:47;;;;;;;;;;;;;;;13.61;76.53;101766.72;5001125;28;20032;-67
2021/08/31 05:24:15;;;;;;;;;;;;;;;13.76;76.25;101768.44;4979190;28;20265;-67
2021/08/31 05:26:43;;;;;;;;;;;;;;;13.88;75.17;101774.88;4978502;28;19982;-67
2021/08/31 05:29:12;;;;;;;;;;;;;;;14.01;75.12;101769.53;4974350;28;19971;-68
2021/08/31 05:31:43;;;;;;;;;;;;;;;14.21;74.76;101766.41;4983162;28;20024;-68
2021/08/31 05:34:11;;;;;;;;;;;;;;;14.31;74.40;101775.59;4982140;28;19970;-68
2021/08/31 05:36:38;;;;;;;;;;;;;;;14.40;73.79;101772.31;4980338;28;19978;-67
2021/08/31 05:39:07;;;;;;;;;;;;;;;14.43;73.76;101777.53;4982501;28;19974;-68
2021/08/31 05:41:35;;;;;;;;;;;;;;;14.55;73.51;101779.41;4989630;28;20025;-67
2021/08/31 05:44:03;;;;;;;;;;;;;;;14.81;73.33;101776.75;4988925;28;19978;-68
2021/08/31 05:46:33;;;;;;;;;;;;;;;14.99;72.89;101774.59;4988625;28;19974;-67
2021/08/31 05:49:00;;;;;;;;;;;;;;;15.15;72.83;101773.44;4988983;28;19974;-68
2021/08/31 05:51:28;;;;;;;;;;;;;;;15.39;72.01;101767.25;4986299;28;20620;-68
2021/08/31 05:53:56;;;;;;;;;;;;;;;15.51;71.79;101760.94;4990842;28;20394;-68
2021/08/31 05:56:24;;;;;;;;;;;;;;;15.56;71.26;101758.78;4990386;28;19970;-67
2021/08/31 05:58:52;;;;;;;;;;;;;;;15.70;71.04;101760.53;4993403;28;19996;-67
2021/08/31 06:01:20;;;;;;;;;;;;;;;15.84;70.97;101763.94;4988411;28;19978;-67
2021/08/31 06:03:49;;;;;;;;;;;;;;;15.93;70.72;101762.44;4985524;28;20010;-67
2021/08/31 06:06:17;;;;;;;;;;;;;;;15.95;69.99;101757.75;4986792;28;20002;-67
2021/08/31 06:08:46;;;;;;;;;;;;;;;16.00;70.40;101758.28;4979633;28;20029;-67
2021/08/31 06:11:16;;;;;;;;;;;;;;;16.10;69.92;101755.72;4978535;28;19975;-67
2021/08/31 06:13:44;;;;;;;;;;;;;;;16.15;70.30;101753.53;4986611;28;20376;-68
2021/08/31 06:16:12;;;;;;;;;;;;;;;16.40;70.73;101752.56;4986208;28;20488;-68
2021/08/31 06:18:40;;;;;;;;;;;;;;;16.64;70.80;101755.25;4980473;28;20160;-67
2021/08/31 06:21:09;;;;;;;;;;;;;;;16.91;70.21;101757.69;4998149;28;20445;-67
2021/08/31 06:23:37;;;;;;;;;;;;;;;17.00;68.58;101743.41;4984608;28;20001;-68
2021/08/31 06:26:05;;;;;;;;;;;;;;;16.97;68.63;101749.94;4989101;28;19972;-68
2021/08/31 06:28:33;;;;;;;;;;;;;;;17.23;67.22;101744.31;4981131;28;19977;-67
2021/08/31 06:31:01;;;;;;;;;;;;;;;17.47;67.71;101750.50;4977689;28;20263;-68
2021/08/31 06:33:29;;;;;;;;;;;;;;;17.56;66.94;101741.59;4977945;28;20491;-68
2021/08/31 06:35:57;;;;;;;;;;;;;;;17.59;66.38;101749.50;4981005;28;20449;-68
2021/08/31 06:38:26;;;;;;;;;;;;;;;17.45;65.90;101744.31;4982184;28;20197;-68
2021/08/31 06:40:54;;;;;;;;;;;;;;;17.45;66.92;101738.88;4984722;28;19971;-68
2021/08/31 06:43:22;;;;;;;;;;;;;;;17.66;66.24;101748.00;4983365;28;20048;-68
2021/08/31 06:45:49;;;;;;;;;;;;;;;17.75;64.85;101751.84;4988533;28;20692;-68
2021/08/31 06:48:17;;;;;;;;;;;;;;;17.85;65.13;101751.97;4987430;28;20421;-68
2021/08/31 06:50:45;;;;;;;;;;;;;;;18.06;63.82;101752.91;4983386;28;20436;-68
2021/08/31 06:53:13;;;;;;;;;;;;;;;18.24;63.85;101748.66;4980485;28;20425;-68
2021/08/31 06:55:42;;;;;;;;;;;;;;;18.34;64.78;101747.84;4979353;28;20025;-68
2021/08/31 06:58:10;;;;;;;;;;;;;;;18.37;63.65;101753.03;5002562;28;19988;-68
2021/08/31 07:00:38;;;;;;;;;;;;;;;18.54;63.76;101760.66;4981259;28;20417;-68
2021/08/31 07:03:06;;;;;;;;;;;;;;;18.56;62.49;101756.81;4977103;28;19992;-68
2021/08/31 07:05:33;;;;;;;;;;;;;;;18.54;62.84;101761.50;4981916;28;19970;-68
2021/08/31 07:08:01;;;;;;;;;;;;;;;18.44;62.92;101755.13;4977653;28;19970;-68
2021/08/31 07:10:29;;;;;;;;;;;;;;;18.74;63.08;101757.13;4978581;28;20027;-67
2021/08/31 07:12:58;;;;;;;;;;;;;;;19.13;62.26;101754.66;4980426;28;19974;-68
2021/08/31 07:15:26;;;;;;;;;;;;;;;19.26;60.81;101758.00;4976467;28;19980;-68
2021/08/31 07:17:54;;;;;;;;;;;;;;;19.49;60.91;101745.94;4983922;28;20003;-67
2021/08/31 07:20:22;;;;;;;;;;;;;;;19.81;60.34;101753.13;4997039;28;20996;-68
2021/08/31 07:22:50;;;;;;;;;;;;;;;19.90;60.47;101752.31;4980404;28;19986;-67
2021/08/31 07:25:38;;;;;;;;;;;;;;;19.95;61.26;101752.75;4978844;28;20052;-68
2021/08/31 07:28:07;;;;;;;;;;;;;;;20.08;60.45;101766.97;4982228;28;19973;-68
2021/08/31 07:30:35;;;;;;;;;;;;;;;20.22;58.52;101756.66;4989431;28;19972;-68
2021/08/31 07:33:05;;;;;;;;;;;;;;;20.32;59.72;101763.84;4973667;28;19974;-68
2021/08/31 07:35:33;;;;;;;;;;;;;;;20.39;58.80;101764.13;4981044;28;19972;-68
2021/08/31 07:38:01;;;;;;;;;;;;;;;20.29;59.43;101757.81;4976012;28;20321;-68
2021/08/31 07:40:30;;;;;;;;;;;;;;;20.22;58.77;101756.66;4989915;28;19971;-67
2021/08/31 07:42:58;;;;;;;;;;;;;;;20.51;56.96;101765.78;4986749;28;20331;-68
2021/08/31 07:45:27;;;;;;;;;;;;;;;20.40;58.46;101760.44;4985386;28;19922;-68
2021/08/31 07:47:55;;;;;;;;;;;;;;;20.17;58.99;101760.66;5002510;28;20003;-67
2021/08/31 07:50:23;;;;;;;;;;;;;;;20.43;58.36;101760.16;4981220;28;20503;-67
2021/08/31 07:52:51;;;;;;;;;;;;;;;20.47;59.38;101769.78;4989693;28;21092;-67
2021/08/31 07:55:20;;;;;;;;;;;;;;;20.14;59.25;101765.53;4978110;28;19973;-68
2021/08/31 07:57:48;;;;;;;;;;;;;;;20.31;58.63;101767.59;4986604;28;19975;-68
2021/08/31 08:00:17;;;;;;;;;;;;;;;20.54;58.00;101768.22;4990250;28;19992;-67
2021/08/31 08:02:47;;;;;;;;;;;;;;;20.60;59.39;101759.44;4988897;28;19976;-67
2021/08/31 08:05:15;;;;;;;;;;;;;;;20.39;58.35;101758.69;4983882;28;19993;-67
2021/08/31 08:07:43;;;;;;;;;;;;;;;20.34;58.47;101766.44;4984124;28;20041;-68
2021/08/31 08:10:11;;;;;;;;;;;;;;;20.48;57.87;101766.03;4985902;28;19974;-68
2021/08/31 08:12:39;;;;;;;;;;;;;;;20.24;58.67;101768.31;4973565;28;19974;-68
2021/08/31 08:15:07;;;;;;;;;;;;;;;20.41;58.81;101767.63;4974242;28;19974;-68
2021/08/31 08:17:35;;;;;;;;;;;;;;;20.54;58.43;101761.91;4987988;28;19969;-68
2021/08/31 08:20:07;;;;;;;;;;;;;;;20.48;58.23;101774.22;5007689;28;20006;-67
2021/08/31 08:22:35;;;;;;;;;;;;;;;20.70;57.45;101765.75;4996593;28;19972;-68
2021/08/31 08:25:03;;;;;;;;;;;;;;;20.70;58.26;101757.56;4995333;28;20410;-67
2021/08/31 08:27:31;;;;;;;;;;;;;;;20.82;57.42;101765.63;4989154;28;20412;-68
2021/08/31 08:29:58;;;;;;;;;;;;;;;20.68;56.61;101764.19;4991075;28;20476;-68
2021/08/31 08:32:26;;;;;;;;;;;;;;;20.67;56.72;101755.13;4990208;28;19977;-68
2021/08/31 08:34:54;;;;;;;;;;;;;;;20.60;55.76;101756.72;4990899;28;19975;-68
2021/08/31 08:37:26;;;;;;;;;;;;;;;20.40;58.05;101763.16;4989100;28;20066;-68
2021/08/31 08:39:54;;;;;;;;;;;;;;;20.65;56.86;101756.28;4978148;28;19976;-68
2021/08/31 08:42:22;;;;;;;;;;;;;;;20.52;57.52;101759.31;4991445;28;19997;-68
2021/08/31 08:44:50;;;;;;;;;;;;;;;20.64;56.84;101757.28;4978049;28;20022;-68
2021/08/31 08:47:17;;;;;;;;;;;;;;;20.68;57.37;101762.31;4991967;28;19971;-68
2021/08/31 08:49:46;;;;;;;;;;;;;;;20.60;57.61;101761.31;4990053;28;20034;-68
2021/08/31 08:52:14;;;;;;;;;;;;;;;20.82;55.91;101771.09;4991753;28;19968;-68
2021/08/31 08:54:43;;;;;;;;;;;;;;;20.92;56.26;101761.00;4990063;28;19968;-68
2021/08/31 08:57:11;;;;;;;;;;;;;;;20.88;55.85;101754.13;4991624;28;20468;-68
2021/08/31 08:59:41;;;;;;;;;;;;;;;20.76;56.56;101754.25;4991363;28;20007;-68
2021/08/31 09:02:09;;;;;;;;;;;;;;;20.64;57.27;101758.16;4992159;28;20378;-67
2021/08/31 09:04:45;;;;;;;;;;;;;;;20.60;55.78;101756.72;4977715;28;19993;-68
2021/08/31 09:07:17;;;;;;;;;;;;;;;20.62;56.53;101753.84;4981565;28;20018;-67
2021/08/31 09:09:47;;;;;;;;;;;;;;;20.89;55.05;101753.09;4990475;28;20483;-68
2021/08/31 09:12:28;;;;;;;;;;;;;;;20.94;55.21;101746.19;4988529;28;20061;-68
2021/08/31 09:14:56;;;;;;;;;;;;;;;20.91;54.80;101751.09;4987506;28;20011;-68
2021/08/31 09:17:24;;;;;;;;;;;;;;;20.65;54.99;101746.22;4995762;28;20399;-67
2021/08/31 09:19:52;;;;;;;;;;;;;;;20.93;54.93;101740.88;4990982;28;19972;-67
2021/08/31 09:22:21;;;;;;;;;;;;;;;20.84;54.07;101750.81;4990412;28;20423;-67
2021/08/31 09:25:01;;;;;;;;;;;;;;;20.62;53.33;101748.38;4991326;28;20045;-68
2021/08/31 09:27:33;;;;;;;;;;;;;;;20.69;53.60;101750.38;4987744;28;19966;-68
2021/08/31 09:30:14;;;;;;;;;;;;;;;20.68;55.56;101742.34;4990166;28;20450;-67
2021/08/31 09:32:59;;;;;;;;;;;;;;;21.02;53.94;101734.53;4990733;28;19966;-68
2021/08/31 09:35:30;;;;;;;;;;;;;;;21.09;53.67;101735.66;4986421;28;19991;-68
2021/08/31 09:37:58;;;;;;;;;;;;;;;21.32;53.58;101728.00;4990784;28;20365;-68
2021/08/31 09:40:30;;;;;;;;;;;;;;;21.37;53.04;101723.78;4990533;28;20024;-68
2021/08/31 09:43:00;;;;;;;;;;;;;;;21.55;51.78;101723.00;4981382;28;20425;-68
2021/08/31 09:45:30;;;;;;;;;;;;;;;21.17;52.37;101738.53;4990252;28;19988;-68
2021/08/31 09:47:58;;;;;;;;;;;;;;;21.31;53.21;101726.25;4990785;28;20283;-68
2021/08/31 09:50:31;;;;;;;;;;;;;;;21.10;51.81;101726.44;4981834;28;20215;-67
2021/08/31 09:53:07;;;;;;;;;;;;;;;21.44;53.64;101721.34;4987007;28;19973;-68
2021/08/31 09:55:36;;;;;;;;;;;;;;;21.73;53.53;101725.78;4981073;28;20352;-68
2021/08/31 09:58:08;;;;;;;;;;;;;;;21.90;53.10;101725.84;4994487;28;20244;-68
2021/08/31 10:00:36;;;;;;;;;;;;;;;21.64;52.28;101727.56;4990397;28;19971;-68
2021/08/31 10:03:05;;;;;;;;;;;;;;;21.83;51.89;101719.25;4990248;28;19979;-67
2021/08/31 10:05:34;;;;;;;;;;;;;;;21.99;50.94;101730.38;4990374;28;20120;-68
2021/08/31 10:08:02;;;;;;;;;;;;;;;21.80;52.22;101725.03;4980258;28;19988;-67
2021/08/31 10:10:33;;;;;;;;;;;;;;;21.62;52.59;101719.50;4990164;28;20388;-68
2021/08/31 10:13:04;;;;;;;;;;;;;;;21.73;51.61;101721.16;4990645;28;19969;-68
2021/08/31 10:15:35;;;;;;;;;;;;;;;21.53;51.41;101714.09;4980312;28;20081;-67
2021/08/31 10:18:04;;;;;;;;;;;;;;;21.64;52.28;101722.09;4990150;28;19972;-67
2021/08/31 10:20:32;;;;;;;;;;;;;;;21.57;51.53;101713.63;4989603;28;19973;-68
2021/08/31 10:23:16;;;;;;;;;;;;;;;21.38;51.70;101709.13;4993219;28;20123;-68
2021/08/31 10:25:44;;;;;;;;;;;;;;;21.82;52.54;101713.94;4983782;28;20395;-69
2021/08/31 10:28:24;;;;;;;;;;;;;;;22.00;50.51;101706.59;4982365;28;20018;-68
2021/08/31 10:30:52;;;;;;;;;;;;;;;22.04;49.27;101705.34;4995863;28;20032;-68
2021/08/31 10:33:34;;;;;;;;;;;;;;;22.04;50.97;101715.41;4986291;28;19977;-68
2021/08/31 10:36:03;;;;;;;;;;;;;;;22.30;49.86;101710.88;4980701;28;20061;-68
2021/08/31 10:38:41;;;;;;;;;;;;;;;22.31;49.23;101707.13;4990138;28;19982;-68
2021/08/31 10:41:34;;;;;;;;;;;;;;;22.61;49.97;101714.94;4970954;28;19970;-68
2021/08/31 10:44:05;;;;;;;;;;;;;;;22.92;50.19;101701.66;4976119;28;19972;-68
2021/08/31 10:46:54;;;;;;;;;;;;;;;23.21;48.17;101700.47;4990231;28;19941;-68
2021/08/31 10:49:22;;;;;;;;;;;;;;;23.40;47.58;101699.38;4989339;28;20071;-68
2021/08/31 10:52:04;;;;;;;;;;;;;;;23.58;46.61;101707.56;4989036;28;19972;-68
2021/08/31 10:54:43;;;;;;;;;;;;;;;23.10;47.06;101693.41;4986778;28;20011;-68
2021/08/31 10:57:25;;;;;;;;;;;;;;;22.65;47.80;101696.28;4994850;28;19982;-68
2021/08/31 10:59:55;;;;;;;;;;;;;;;22.57;47.87;101697.09;4979436;28;19973;-68
2021/08/31 11:02:37;;;;;;;;;;;;;;;22.91;48.17;101685.38;4989134;28;19978;-68
2021/08/31 11:05:33;;;;;;;;;;;;;;;22.87;48.31;101692.22;4970726;28;20352;-68
2021/08/31 11:08:13;;;;;;;;;;;;;;;22.93;48.35;101692.44;4961452;28;20003;-68
2021/08/31 11:10:42;;;;;;;;;;;;;;;23.22;46.73;101683.00;4993257;28;20431;-68
2021/08/31 11:13:11;;;;;;;;;;;;;;;23.54;46.46;101696.00;4998085;28;19969;-68
2021/08/31 11:15:40;;;;;;;;;;;;;;;23.27;46.59;101693.50;4980918;28;19983;-68
2021/08/31 11:18:09;;;;;;;;;;;;;;;23.19;47.11;101675.97;4989285;28;19987;-68
2021/08/31 11:20:37;;;;;;;;;;;;;;;23.18;45.67;101687.09;4989148;28;19946;-67
2021/08/31 11:23:07;;;;;;;;;;;;;;;22.88;46.46;101689.31;4989439;28;20074;-68
2021/08/31 11:25:36;;;;;;;;;;;;;;;22.58;46.97;101682.38;4989260;28;20033;-68
2021/08/31 11:28:05;;;;;;;;;;;;;;;22.68;46.82;101675.97;4989400;28;19981;-68
2021/08/31 11:30:50;;;;;;;;;;;;;;;22.85;47.14;101667.72;4989419;28;20380;-68
2021/08/31 11:33:20;;;;;;;;;;;;;;;23.02;48.28;101673.31;4982370;28;20031;-68
2021/08/31 11:35:48;;;;;;;;;;;;;;;23.21;47.06;101662.97;4989492;28;20334;-68
2021/08/31 11:38:27;;;;;;;;;;;;;;;23.33;47.53;101670.91;4983577;28;20000;-68
2021/08/31 11:40:55;;;;;;;;;;;;;;;23.21;47.56;101662.97;4983172;28;19977;-67
2021/08/31 11:43:30;;;;;;;;;;;;;;;23.06;46.71;101650.91;4988957;28;19984;-67
2021/08/31 11:45:59;;;;;;;;;;;;;;;23.29;47.87;101644.84;4996319;28;20044;-67
2021/08/31 11:48:27;;;;;;;;;;;;;;;23.43;46.39;101646.94;4992174;28;19976;-67
2021/08/31 11:50:56;;;;;;;;;;;;;;;23.65;45.67;101643.66;4993829;28;19979;-67
2021/08/31 11:53:24;;;;;;;;;;;;;;;23.96;44.78;101640.28;4992843;28;20432;-67
2021/08/31 11:55:55;;;;;;;;;;;;;;;23.71;45.81;101633.88;4993483;28;20100;-67
2021/08/31 11:58:24;;;;;;;;;;;;;;;23.93;45.24;101627.75;4980533;28;19977;-67
2021/08/31 12:00:52;;;;;;;;;;;;;;;23.89;46.13;101645.59;4992917;28;19977;-68
2021/08/31 12:03:23;;;;;;;;;;;;;;;23.95;46.50;101638.56;4993049;28;20081;-67
2021/08/31 12:05:54;;;;;;;;;;;;;;;24.00;46.11;101645.25;4993022;28;20443;-67
2021/08/31 12:08:22;;;;;;;;;;;;;;;23.91;45.48;101639.94;4995401;28;19985;-67
2021/08/31 12:10:52;;;;;;;;;;;;;;;23.95;45.21;101641.31;4992437;28;19971;-67
2021/08/31 12:13:20;;;;;;;;;;;;;;;23.98;45.97;101632.72;4992433;28;19972;-67
2021/08/31 12:15:48;;;;;;;;;;;;;;;24.06;46.85;101635.47;4992822;28;19980;-67
2021/08/31 12:18:18;;;;;;;;;;;;;;;24.16;45.51;101636.16;5008410;28;19980;-67
2021/08/31 12:20:47;;;;;;;;;;;;;;;24.32;43.59;101638.97;4982742;28;19968;-67
2021/08/31 12:23:15;;;;;;;;;;;;;;;23.81;45.58;101640.06;4982892;28;19967;-68
2021/08/31 12:25:44;;;;;;;;;;;;;;;23.34;44.91;101647.97;4991003;28;19988;-67
2021/08/31 12:28:12;;;;;;;;;;;;;;;23.34;46.52;101634.25;4991832;28;19973;-66
2021/08/31 12:30:41;;;;;;;;;;;;;;;22.87;46.88;101643.75;4992784;28;19996;-67
2021/08/31 12:33:09;;;;;;;;;;;;;;;22.86;46.91;101636.56;4989904;28;19972;-66
2021/08/31 12:35:39;;;;;;;;;;;;;;;23.27;46.92;101634.06;4992907;28;20101;-67
2021/08/31 12:38:12;;;;;;;;;;;;;;;23.51;45.41;101636.88;4992357;28;20322;-67
2021/08/31 12:40:42;;;;;;;;;;;;;;;22.90;46.40;101639.84;4983097;28;19973;-67
2021/08/31 12:43:11;;;;;;;;;;;;;;;23.23;45.60;101635.38;4991548;28;19973;-67
2021/08/31 12:45:39;;;;;;;;;;;;;;;23.43;47.99;101614.06;4990440;28;19986;-67